Valle Toledo, Valles Caldera, New Mexico Weather observations

Data are for 10 minute period ending at time listed.
 Day   Time   Solar   Ave.   Ave.  Ave.  Vector  Max.   Baro.   Total    
  of    of     Rad.   Air    Rel.  Wind   Wind   Wind  Press.  Precip.   
Year   Day            Temp.  Hum.  Speed  Dir.   Gust                    
2026   (MST)  Kw/m2    F      %     mph   deg.    mph    mb.     in.     
-------------------------------------------------------------------------
 127    3:10   0.00   24.8    61    0.0     0     0.0   732.0    0.00 
 127    3:20   0.00   24.9    59    0.0     0     0.0   732.1    0.00 
 127    3:30   0.00   25.1    58    0.0     0     0.0   732.1    0.00 
 127    3:40   0.00   25.2    58    0.0     0     0.0   732.1    0.00 
 127    3:50   0.00   25.2    57    0.0     0     0.0   732.1    0.00 
 127    4:00   0.00   25.3    57    0.0     0     0.0   732.1    0.00 
 127    4:10   0.00   25.1    57    0.0     0     0.0   732.1    0.00 
 127    4:20   0.00   24.8    57    0.0     0     0.0   732.1    0.00 
 127    4:30   0.00   24.7    60    0.0     0     0.0   732.1    0.00 
 127    4:40   0.00   25.0    58    0.0     0     0.0   732.2    0.00 
 127    4:50   0.00   24.8    58    0.0     0     0.0   732.3    0.00 
 127    5:00   0.00   25.0    58    0.0     0     0.0   732.2    0.00 
 127    5:10   0.00   24.7    59    0.0     0     0.0   732.3    0.00 
 127    5:20   0.01   24.8    58    0.0     0     0.0   732.3    0.00 
 127    5:30   0.01   25.1    58    0.0     0     0.0   732.2    0.00 
 127    5:40   0.01   25.2    58    0.0     0     0.0   732.2    0.00 
 127    5:50   0.02   25.3    59    0.0     0     0.0   732.2    0.00 
 127    6:00   0.02   24.5    59    0.0     0     0.0   732.3    0.00 
 127    6:10   0.02   24.9    59    0.0     0     0.0   732.3    0.00 
 127    6:20   0.16   25.3    58    0.0     0     0.0   732.4    0.00 
 127    6:30   0.23   26.9    57    0.0     0     0.0   732.4    0.00 
 127    6:40   0.27   29.3    52    0.0     0     0.0   732.4    0.00 
 127    6:50   0.30   31.7    48    0.0     0     0.0   732.3    0.00 
 127    7:00   0.34   35.0    47    0.0     0     0.0   732.3    0.00 
 127    7:10   0.38   38.5    40    0.0     0     0.0   732.2    0.00 
 127    7:20   0.42   42.4    33    0.0     0     0.0   732.1    0.00 
 127    7:30   0.46   43.5    31    0.0     0     0.0   732.0    0.00 
 127    7:40   0.49   43.8    33    0.0     0     0.0   731.9    0.00 
 127    7:50   0.53   41.6    32    0.0     0     0.0   731.9    0.00 
 127    8:00   0.56   42.4    28    0.0     0     0.0   731.9    0.00 
 127    8:10   0.60   42.8    28    0.0     0     0.0   732.0    0.00 
 127    8:20   0.63   43.1    29    0.0     0     0.0   732.1    0.00 
 127    8:30   0.67   45.6    28    0.0     0     0.0   732.2    0.00 
 127    8:40   0.70   46.4    25    0.0     0     0.0   732.3    0.00 
 127    8:50   0.73   47.7    25    0.0     0     0.0   732.3    0.00 
 127    9:00   0.76   47.7    24    0.0     0     0.0   732.3    0.00 
 127    9:10   0.79   49.9    21    0.0    34     1.8   732.3    0.00 
 127    9:20   0.81   51.1    19    0.0     0     0.0   732.2    0.00 
 127    9:30   0.84   52.2    19    0.1    28     3.0   732.2    0.00 
 127    9:40   0.86   51.9    19    0.0     0     0.0   732.0    0.00 
 127    9:50   0.88   52.7    15    0.0     0     0.0   732.0    0.00 
 127   10:00   0.91   54.0    14    0.0     0     0.0   731.9    0.00 
 127   10:10   0.93   53.6    13    0.9    34     7.8   731.8    0.00 
 127   10:20   0.94   53.4    11    3.7    70    12.5   731.9    0.00 
 127   10:30   0.96   54.9    11    0.8   348     9.0   731.9    0.00 
 127   10:40   0.98   55.9    11    0.0     0     0.0   731.9    0.00 
 127   10:50   0.99   56.5    10    0.0     0     0.0   731.9    0.01 
 127   11:00   1.00   56.9    10    4.4    95    12.5   731.7    0.00 
 127   11:10   1.01   57.4    11    5.9   152    11.3   731.7    0.00 
 127   11:20   1.02   57.9    11    5.7   127    13.7   731.6    0.01 
 127   11:30   1.02   57.3    11    5.3   109    14.9   731.6    0.00 
 127   11:40   1.03   57.4    12    0.0     0     0.0   731.5    0.01 
 127   11:50   1.03   58.0    13    4.3    47    14.3   731.4    0.00 
 127   12:00   1.03   57.7    12    5.0    79    11.9   731.3    0.01 
 127   12:10   1.03   58.3    12    0.3   127     6.6   731.3    0.00 
 127   12:20   1.02   58.8    13    0.0     0     0.0   731.2    0.00 
 127   12:30   1.02   58.9    12    0.0     0     0.0   731.2    0.01 
 127   12:40   1.01   59.4    14    0.0     0     0.0   731.1    0.00 
 127   12:50   1.00   58.9    14    0.0     0     0.0   731.1    0.00 
 127   13:00   1.00   59.8    13    0.0     0     0.0   731.0    0.00 
 127   13:10   0.98   60.3    13    1.6    72    10.8   730.9    0.01 
 127   13:20   0.97   60.1    14    3.8    93    13.1   730.9    0.00 
 127   13:30   0.96   60.1    16    0.0     0     0.0   730.9    0.00 
 127   13:40   0.94   60.1    21    0.0     0     0.0   730.8    0.00 
 127   13:50   0.92   59.2    22    0.0     0     0.0   730.7    0.00 
 127   14:00   0.91   60.6    21    2.0   331    13.1   730.6    0.01 
 127   14:10   0.89   60.2    21    7.0   328    13.1   730.5    0.00 
 127   14:20   0.87   60.0    20    1.8   329     8.4   730.4    0.00 
 127   14:30   0.85   60.7    17    0.0     0     0.0   730.4    0.00 
 127   14:40   0.84   61.2    12    0.0     0     0.0   730.2    0.00 
 127   14:50   0.81   61.7    12    0.0   104     1.2   730.1    0.00 
 127   15:00   0.78   61.3    12    0.0     0     0.0   730.1    0.00 
 127   15:10   0.75   62.0    12    1.5    77     9.6   730.0    0.00 
 127   15:20   0.72   63.3    11    1.5   112    11.9   729.9    0.01 
 127   15:30   0.69   62.4    11    3.6    74    11.9   729.9    0.00 
 127   15:40   0.66   62.9    10    3.5   123    11.3   729.9    0.00 
 127   15:50   0.63   62.6    10    5.5   109    14.3   729.9    0.00 
 127   16:00   0.59   63.0    10    1.3    66    10.8   729.9    0.00 
 127   16:10   0.56   61.3    10    3.6    80    18.5   729.9    0.00 
 127   16:20   0.53   61.6    10    0.0     0     0.0   729.9    0.00 
 127   16:30   0.49   61.0    10    0.0     0     0.0   729.8    0.00 
 127   16:40   0.46   60.8    10    0.0     0     0.0   729.8    0.00 
 127   16:50   0.42   60.5    10    0.0     0     0.0   729.9    0.00 
 127   17:00   0.39   60.0    10    0.0     0     0.0   729.9    0.00 
 127   17:10   0.35   60.5    10    0.0     0     0.0   729.8    0.00 
 127   17:20   0.31   59.6    11    0.0     0     0.0   729.9    0.00 
 127   17:30   0.28   59.0    11    0.0     0     0.0   729.8    0.00 
 127   17:40   0.24   58.7    11    6.0    89    13.7   729.5    0.00 
 127   17:50   0.21   59.4    11    3.6   115    14.9   729.6    0.00 
 127   18:00   0.17   59.3    11    4.3   112     9.0   729.6    0.00 
 127   18:10   0.14   58.5    10    4.6   115     9.0   729.5    0.00 
 127   18:20   0.12   57.7    10    3.5   113    10.8   729.6    0.00 
 127   18:30   0.09   56.6    11    0.0     0     0.0   729.8    0.00 
 127   18:40   0.04   54.3    12    0.7   108     6.6   730.1    0.00 
 127   18:50   0.01   52.3    13    0.0     0     0.0   730.3    0.00 
 127   19:00   0.01   50.6    14    0.0     0     0.0   730.3    0.00 
 127   19:10   0.00   49.4    14    0.0     0     0.0   730.4    0.00 
 127   19:20   0.00   48.7    14    0.0     0     0.0   730.5    0.00 
 127   19:30   0.00   47.9    14    0.0     0     0.0   730.5    0.00 
 127   19:40   0.00   47.6    14    0.0     0     0.0   730.6    0.00 
 127   19:50   0.00   47.3    13    0.0     0     0.0   730.6    0.00 
 127   20:00   0.00   46.8    14    0.0     0     0.0   730.6    0.00 
 127   20:10   0.00   45.9    16    0.0     0     0.0   730.8    0.00 
 127   20:20   0.00   45.4    16    0.0     0     0.0   730.8    0.00 
 127   20:30   0.00   43.9    18    0.0     0     0.0   730.9    0.00 
 127   20:40   0.00   43.1    18    0.0     0     0.0   731.0    0.00 
 127   20:50   0.00   43.4    18    0.0     0     0.0   731.1    0.00 
 127   21:00   0.00   42.7    18    0.0     0     0.0   731.0    0.00 
 127   21:10   0.00   42.2    19    0.0     0     0.0   731.0    0.00 
 127   21:20   0.00   41.7    20    0.0     0     0.0   731.1    0.00 
 127   21:30   0.00   40.8    22    0.0     0     0.0   731.1    0.00 
 127   21:40   0.00   39.9    24    0.0     0     0.0   731.0    0.00 
 127   21:50   0.00   39.4    24    0.0     0     0.0   730.8    0.00 
 127   22:00   0.00   38.8    25    0.0     0     0.0   730.8    0.00 
 127   22:10   0.00   38.6    25    0.0     0     0.0   730.9    0.00 
 127   22:20   0.00   38.6    25    0.0     0     0.0   730.9    0.00 
 127   22:30   0.00   39.0    25    0.0     0     0.0   730.8    0.00 
 127   22:40   0.00   39.1    25    0.0     0     0.0   730.8    0.00 
 127   22:50   0.00   39.1    25    0.0     0     0.0   730.7    0.00 
 127   23:00   0.00   39.2    25    0.0     0     0.0   730.6    0.00 
 127   23:10   0.00   39.0    26    0.0     0     0.0   730.6    0.00 
 127   23:20   0.00   39.3    25    0.0     0     0.0   730.6    0.00 
 127   23:30   0.00   39.7    25    0.0     0     0.0   730.6    0.00 
 127   23:40   0.00   39.7    26    0.0     0     0.0   730.6    0.00 
 127   23:50   0.00   39.6    26    0.0     0     0.0   730.6    0.00 
 128    0:00   0.00   39.8    26    0.0     0     0.0   730.8    0.00 
 128    0:10   0.00   39.4    28    0.0     0     0.0   730.7    0.00 
 128    0:20   0.00   38.8    30    0.0     0     0.0   730.7    0.00 
 128    0:30   0.00   39.4    28    0.0     0     0.0   730.6    0.00 
 128    0:40   0.00   39.6    29    0.0     0     0.0   731.0    0.00 
 128    0:50   0.00   39.2    30    0.0     0     0.0   730.9    0.00 
 128    1:00   0.00   40.0    28    0.0     0     0.0   730.8    0.00 
 128    1:10   0.00   39.9    29    0.0     0     0.0   730.4    0.00 
 128    1:20   0.00   39.5    30    0.0     0     0.0   730.4    0.00 
 128    1:30   0.00   39.4    32    0.0     0     0.0   730.5    0.00 
 128    1:40   0.00   39.2    32    0.0     0     0.0   730.2    0.00 
 128    1:50   0.00   40.4    31    0.0     0     0.0   730.3    0.00 
 128    2:00   0.00   40.2    32    0.0     0     0.0   730.2    0.00 
 128    2:10   0.00   40.0    34    0.0     0     0.0   730.1    0.00 
 128    2:20   0.00   39.9    36    0.0     0     0.0   730.0    0.00 
 128    2:30   0.00   38.9    39    0.0     0     0.0   730.0    0.00 
 128    2:40   0.00   40.9    36    0.0     0     0.0   730.2    0.00 
 128    2:50   0.00   41.4    36    0.0     0     0.0   730.1    0.00 
 128    3:00   0.00   40.6    37    0.0     0     0.0   730.1    0.00 

Return to Valle Toledo, Valles Caldera graphs page.


Western Regional Climate Center,wrcc@dri.edu